Bouckville, New York
Current Conditions -  °F | °C
As of 8:53 PM on Sunday 25 Jan 2015 (Local Time) from KRME Reporting Station
Clear Clear  
Wind Chill:   Ceiling: Unl
Heat Index:   Visibility: 10mi
Dew Point: -4°   Wind: 3mph
Humidity: 58%   Direction: 30°NNE
Pressure: 30.06"   Gusts: NA
Location:  42.89°N, 75.55°W
Report Text: KRME 260153Z 03003KT 10SM CLR M13/M20 A3006 RMK AO2 SLP187 T11331200
Loading
Personal Weather Stations






























Interactive Weather Map New forecast layout! Learn more

10-Day Weather Forecast

Advertisements
Track Severe Weather on mobile